Time;durP1;ratioP1;P1;durP2;ratioP2;P2;SDS_P1;SDS_P2;PMS_P1;PMS_P2;Temp;Humidity;BMP_temperature;BMP_pressure;BME280_temperature;BME280_humidity;BME280_pressure;Samples;Min_cycle;Max_cycle;Signal;HPM_P1;HPM_P2
2024/01/09 00:02:19;;;;;;;;;11.75;10.00;;;;;-2.25;73.29;103523.75;4952892;28;11621;-68
2024/01/09 00:04:46;;;;;;;;;10.75;9.50;;;;;-2.25;73.76;103523.75;4952265;28;11552;-68
2024/01/09 00:07:12;;;;;;;;;11.75;9.25;;;;;-2.21;73.73;103529.81;4953499;28;11581;-67
2024/01/09 00:09:39;;;;;;;;;13.00;11.00;;;;;-2.20;73.78;103513.06;4958514;28;12280;-68
2024/01/09 00:12:06;;;;;;;;;11.25;10.00;;;;;-2.22;72.96;103523.66;4953717;28;11642;-67
2024/01/09 00:14:33;;;;;;;;;11.25;9.00;;;;;-2.21;73.85;103522.75;4951720;28;11669;-66
2024/01/09 00:16:59;;;;;;;;;11.50;9.75;;;;;-2.28;73.30;103515.91;4952920;28;11551;-68
2024/01/09 00:19:26;;;;;;;;;13.50;12.00;;;;;-2.32;72.99;103519.56;4945320;29;11604;-68
2024/01/09 00:21:55;;;;;;;;;12.50;12.00;;;;;-2.26;73.33;103517.63;4948845;28;11563;-67
2024/01/09 00:24:22;;;;;;;;;14.25;11.50;;;;;-2.21;73.43;103514.84;4965699;28;11652;-67
2024/01/09 00:26:49;;;;;;;;;10.75;9.00;;;;;-2.16;73.32;103517.34;4971103;28;11578;-66
2024/01/09 00:29:15;;;;;;;;;13.00;9.50;;;;;-2.13;73.45;103518.09;4957293;28;11722;-67
2024/01/09 00:31:44;;;;;;;;;11.25;11.25;;;;;-2.15;73.13;103514.63;4951252;28;11659;-68
2024/01/09 00:34:10;;;;;;;;;11.00;10.00;;;;;-2.15;72.79;103514.63;4948375;28;11599;-68
2024/01/09 00:36:44;;;;;;;;;10.00;9.00;;;;;-2.05;73.02;103516.09;4952387;28;11583;-67
2024/01/09 00:39:13;;;;;;;;;8.00;7.00;;;;;-2.06;72.45;103508.25;4955677;28;11541;-67
2024/01/09 00:41:40;;;;;;;;;9.50;9.50;;;;;-2.06;73.07;103514.38;4950692;28;11571;-68
2024/01/09 00:44:07;;;;;;;;;9.00;7.00;;;;;-2.09;72.44;103505.69;4951254;28;11602;-68
2024/01/09 00:46:33;;;;;;;;;12.00;10.00;;;;;-2.28;72.18;103508.00;4951793;28;11579;-66
2024/01/09 00:49:06;;;;;;;;;10.25;10.25;;;;;-2.20;72.76;103506.00;5084052;27;13508;-68
2024/01/09 00:51:33;;;;;;;;;15.00;12.00;;;;;-2.27;72.25;103512.38;5065091;28;11536;-68
2024/01/09 00:53:59;;;;;;;;;12.75;10.00;;;;;-2.16;73.07;103509.41;5067041;28;11672;-66
2024/01/09 00:56:26;;;;;;;;;9.50;8.75;;;;;-2.07;72.54;103510.00;5066912;28;11524;-66
2024/01/09 00:58:52;;;;;;;;;8.50;8.50;;;;;-2.12;72.42;103509.28;5065500;28;11527;-68
2024/01/09 01:01:19;;;;;;;;;13.25;10.50;;;;;-2.17;72.18;103505.91;5065384;28;11490;-68
2024/01/09 01:03:46;;;;;;;;;14.00;9.75;;;;;-2.14;72.53;103505.84;5062802;28;11554;-67
2024/01/09 01:06:12;;;;;;;;;14.50;12.00;;;;;-2.14;73.31;103503.19;5063554;28;11608;-66
2024/01/09 01:08:39;;;;;;;;;8.50;7.00;;;;;-2.05;73.10;103505.53;5058203;28;11563;-67
2024/01/09 01:11:06;;;;;;;;;12.25;12.25;;;;;-2.14;72.56;103516.38;5065667;28;12206;-66
2024/01/09 01:13:33;;;;;;;;;14.00;11.00;;;;;-2.26;73.01;103511.47;5067074;28;11531;-68
2024/01/09 01:16:00;;;;;;;;;5.50;5.50;;;;;-2.20;73.38;103500.72;5065161;28;11620;-67
2024/01/09 01:18:26;;;;;;;;;10.00;10.00;;;;;-2.20;73.33;103500.72;5066667;28;11520;-66
2024/01/09 01:20:53;;;;;;;;;9.00;9.00;;;;;-2.28;72.47;103502.72;5066809;28;11564;-67
2024/01/09 01:23:20;;;;;;;;;14.25;8.50;;;;;-2.31;73.33;103502.81;5065497;28;12317;-68
2024/01/09 01:25:47;;;;;;;;;10.00;7.00;;;;;-2.26;73.36;103503.56;5066769;28;11547;-67
2024/01/09 01:28:14;;;;;;;;;13.00;9.25;;;;;-2.27;72.82;103504.44;5065040;28;11623;-68
2024/01/09 01:30:40;;;;;;;;;13.00;9.75;;;;;-2.29;72.74;103511.56;5059591;28;11529;-68
2024/01/09 01:33:07;;;;;;;;;9.25;8.50;;;;;-2.27;73.05;103494.78;5065628;28;11540;-67
2024/01/09 01:35:34;;;;;;;;;4.25;4.25;;;;;-2.31;72.38;103508.09;5064158;28;11530;-68
2024/01/09 01:38:01;;;;;;;;;13.25;11.00;;;;;-2.32;72.90;103499.31;5065141;28;11533;-68
2024/01/09 01:40:27;;;;;;;;;14.50;10.50;;;;;-2.26;72.90;103503.56;5066436;28;11539;-67
2024/01/09 01:42:57;;;;;;;;;13.75;9.50;;;;;-2.36;72.63;103513.50;5066102;28;11695;-68
2024/01/09 01:45:24;;;;;;;;;10.00;7.00;;;;;-2.31;73.61;103503.72;5065633;28;11504;-67
2024/01/09 01:47:51;;;;;;;;;7.25;7.25;;;;;-2.30;72.32;103502.78;5075117;28;11571;-68
2024/01/09 01:50:19;;;;;;;;;6.50;6.50;;;;;-2.31;72.23;103497.53;5084598;28;11476;-68
2024/01/09 01:52:46;;;;;;;;;12.00;10.00;;;;;-2.32;72.72;103495.81;5086029;28;11461;-66
2024/01/09 01:55:16;;;;;;;;;15.25;12.00;;;;;-2.33;73.01;103489.69;5069802;28;11482;-67
2024/01/09 01:57:44;;;;;;;;;10.00;9.25;;;;;-2.36;72.73;103489.75;5072087;28;11613;-66
2024/01/09 02:00:11;;;;;;;;;9.00;9.00;;;;;-2.40;72.34;103498.69;5074085;28;11488;-66
2024/01/09 02:02:38;;;;;;;;;8.50;8.50;;;;;-2.40;72.40;103492.53;5054428;28;12255;-67
2024/01/09 02:05:06;;;;;;;;;9.75;8.50;;;;;-2.44;72.33;103506.72;5072426;28;11551;-65
2024/01/09 02:07:33;;;;;;;;;10.50;9.25;;;;;-2.47;72.37;103493.63;5072247;28;11600;-66
2024/01/09 02:10:02;;;;;;;;;6.00;6.00;;;;;-2.45;72.12;103491.81;5072441;28;11592;-67
2024/01/09 02:12:29;;;;;;;;;10.00;8.00;;;;;-2.45;71.76;103489.19;5072262;28;11499;-67
2024/01/09 02:14:55;;;;;;;;;9.50;9.50;;;;;-2.36;72.26;103495.03;5071733;28;11434;-66
2024/01/09 02:17:23;;;;;;;;;9.25;8.00;;;;;-2.39;71.78;103496.91;5083817;28;11476;-66
2024/01/09 02:19:49;;;;;;;;;7.00;7.00;;;;;-2.38;72.01;103490.75;5049221;28;11573;-66
2024/01/09 02:22:16;;;;;;;;;12.00;9.25;;;;;-2.31;71.88;103500.16;5071866;28;11495;-66
2024/01/09 02:24:42;;;;;;;;;12.75;10.00;;;;;-2.29;71.81;103490.47;5070513;28;11458;-67
2024/01/09 02:27:31;;;;;;;;;11.50;8.00;;;;;-2.38;71.90;103501.28;5072319;28;11501;-66
2024/01/09 02:29:58;;;;;;;;;11.00;9.00;;;;;-2.35;71.52;103493.25;5072155;28;11485;-66
2024/01/09 02:32:25;;;;;;;;;7.25;6.50;;;;;-2.40;71.49;103490.75;5070562;28;11473;-66
2024/01/09 02:34:53;;;;;;;;;12.50;9.00;;;;;-2.38;71.51;103488.97;5053655;28;11516;-65
2024/01/09 02:37:19;;;;;;;;;10.50;8.50;;;;;-2.45;71.34;103478.63;5072359;28;11576;-65
2024/01/09 02:39:46;;;;;;;;;7.75;7.00;;;;;-2.44;71.58;103486.50;5069130;28;11635;-66
2024/01/09 02:42:13;;;;;;;;;11.00;6.50;;;;;-2.35;72.57;103486.25;5071830;28;11495;-67
2024/01/09 02:44:40;;;;;;;;;9.50;7.00;;;;;-2.36;71.87;103483.63;5071944;28;11533;-66
2024/01/09 02:47:06;;;;;;;;;9.50;9.50;;;;;-2.38;72.68;103482.81;5070368;28;11491;-66
2024/01/09 02:49:33;;;;;;;;;11.50;6.75;;;;;-2.38;72.24;103474.91;5071569;28;11609;-65
2024/01/09 02:51:59;;;;;;;;;7.50;7.00;;;;;-2.32;72.38;103477.34;5053265;28;11534;-66
2024/01/09 02:54:26;;;;;;;;;9.50;9.00;;;;;-2.23;72.02;103484.97;5058349;28;11568;-66
2024/01/09 02:56:53;;;;;;;;;9.00;7.00;;;;;-2.27;71.09;103484.25;5071823;28;11513;-65
2024/01/09 02:59:19;;;;;;;;;6.25;6.25;;;;;-2.26;71.71;103485.09;5070308;28;11618;-65
2024/01/09 03:01:46;;;;;;;;;8.00;7.00;;;;;-2.21;72.40;103480.53;5071035;28;11498;-66
2024/01/09 03:04:12;;;;;;;;;11.00;7.50;;;;;-2.35;71.40;103482.72;5071167;28;11457;-66
2024/01/09 03:06:39;;;;;;;;;6.25;6.25;;;;;-2.46;71.91;103477.78;5069065;28;12232;-65
2024/01/09 03:09:06;;;;;;;;;8.75;6.25;;;;;-2.53;71.47;103481.50;5070056;28;11529;-65
2024/01/09 03:11:32;;;;;;;;;6.00;6.00;;;;;-2.54;72.04;103469.22;5085629;28;11462;-65
2024/01/09 03:14:00;;;;;;;;;6.00;6.00;;;;;-2.50;72.77;103466.44;5071279;28;11486;-66
2024/01/09 03:16:26;;;;;;;;;6.00;6.00;;;;;-2.54;71.85;103472.72;5071156;28;11490;-66
2024/01/09 03:18:53;;;;;;;;;6.75;6.00;;;;;-2.53;72.02;103477.06;5053116;28;12330;-65
2024/01/09 03:21:19;;;;;;;;;7.50;6.00;;;;;-2.49;71.79;103475.22;5069692;28;11470;-66
2024/01/09 03:23:46;;;;;;;;;4.00;3.75;;;;;-2.41;71.86;103469.72;5073611;28;11522;-65
2024/01/09 03:26:14;;;;;;;;;6.50;6.50;;;;;-2.36;71.43;103466.03;5063084;28;11464;-66
2024/01/09 03:28:41;;;;;;;;;7.50;4.50;;;;;-2.24;71.49;103470.94;5071258;28;12177;-65
2024/01/09 03:31:07;;;;;;;;;6.25;6.00;;;;;-2.28;71.29;103471.94;5086403;28;11470;-66
2024/01/09 03:33:34;;;;;;;;;7.00;6.00;;;;;-2.23;70.82;103474.44;5069859;28;11463;-66
2024/01/09 03:36:05;;;;;;;;;6.00;6.00;;;;;-2.30;70.70;103468.50;5070714;28;11485;-67
2024/01/09 03:38:32;;;;;;;;;6.75;5.00;;;;;-2.27;70.50;103463.13;5070712;28;11523;-66
2024/01/09 03:40:59;;;;;;;;;4.00;4.00;;;;;-2.24;70.93;103459.50;5070616;28;11506;-65
2024/01/09 03:43:25;;;;;;;;;6.00;4.00;;;;;-2.15;70.84;103466.28;5070389;28;11445;-67
2024/01/09 03:45:54;;;;;;;;;6.75;6.00;;;;;-2.27;70.12;103462.25;5070624;28;11445;-66
2024/01/09 03:48:21;;;;;;;;;4.00;4.00;;;;;-2.38;69.89;103464.38;5069426;28;11467;-67
2024/01/09 03:50:47;;;;;;;;;9.75;8.50;;;;;-2.47;70.98;103462.88;5065683;28;12390;-67
2024/01/09 03:53:14;;;;;;;;;8.00;6.25;;;;;-2.53;69.82;103461.25;5070342;28;11518;-67
2024/01/09 03:55:41;;;;;;;;;7.25;5.50;;;;;-2.65;69.59;103466.88;5070119;28;12270;-67
2024/01/09 03:58:08;;;;;;;;;8.50;5.00;;;;;-2.79;69.60;103455.88;5051353;28;11623;-66
2024/01/09 04:00:34;;;;;;;;;4.00;4.00;;;;;-2.71;71.21;103455.63;5070333;28;11457;-66
2024/01/09 04:03:01;;;;;;;;;5.50;5.50;;;;;-2.69;70.64;103454.69;5052481;28;11451;-65
2024/01/09 04:05:28;;;;;;;;;6.75;5.00;;;;;-2.54;70.57;103458.66;5070512;28;12288;-67
2024/01/09 04:07:54;;;;;;;;;9.00;6.00;;;;;-2.48;70.49;103463.75;5070166;28;11455;-66
2024/01/09 04:10:21;;;;;;;;;5.50;5.50;;;;;-2.62;69.65;103460.66;5070224;28;12214;-66
2024/01/09 04:12:48;;;;;;;;;12.50;5.50;;;;;-2.59;70.50;103455.31;5068595;28;12674;-66
2024/01/09 04:15:15;;;;;;;;;9.00;7.50;;;;;-2.57;70.44;103453.47;5068268;28;11496;-66
2024/01/09 04:17:41;;;;;;;;;7.00;6.00;;;;;-2.60;68.95;103449.16;5070299;28;11476;-66
2024/01/09 04:20:11;;;;;;;;;8.50;5.00;;;;;-2.64;69.03;103458.06;5070201;28;11490;-67
2024/01/09 04:22:38;;;;;;;;;6.50;6.50;;;;;-2.78;69.53;103457.59;5066153;28;11481;-66
2024/01/09 04:25:05;;;;;;;;;10.00;7.50;;;;;-2.75;70.54;103465.44;5083530;28;11486;-67
2024/01/09 04:27:32;;;;;;;;;7.00;6.00;;;;;-2.68;70.69;103461.69;5085148;28;11605;-65
2024/01/09 04:29:58;;;;;;;;;4.00;4.00;;;;;-2.62;70.43;103461.53;5069667;28;12237;-67
2024/01/09 04:32:25;;;;;;;;;6.25;6.00;;;;;-2.80;68.93;103456.75;5070052;28;11512;-66
2024/01/09 04:34:53;;;;;;;;;8.50;6.75;;;;;-2.74;70.13;103461.88;5070091;28;11609;-66
2024/01/09 04:37:20;;;;;;;;;3.00;3.00;;;;;-2.73;70.35;103455.69;5051839;28;11493;-65
2024/01/09 04:39:47;;;;;;;;;6.00;4.00;;;;;-2.69;69.93;103459.09;5069000;28;11500;-67
2024/01/09 04:42:13;;;;;;;;;10.00;6.00;;;;;-2.74;69.81;103456.59;5060219;28;11458;-66
2024/01/09 04:44:40;;;;;;;;;6.00;4.00;;;;;-2.70;69.81;103454.75;5070387;28;11475;-66
2024/01/09 04:47:06;;;;;;;;;5.00;5.00;;;;;-2.68;70.09;103460.81;5069581;28;11521;-66
2024/01/09 04:49:33;;;;;;;;;5.00;5.00;;;;;-2.69;70.02;103459.97;5069858;28;11651;-66
2024/01/09 04:51:59;;;;;;;;;4.00;3.25;;;;;-2.73;70.02;103466.25;5068734;28;11469;-65
2024/01/09 04:54:26;;;;;;;;;8.50;6.00;;;;;-2.87;70.14;103466.63;5069436;28;11444;-65
2024/01/09 04:56:53;;;;;;;;;12.25;10.00;;;;;-2.96;69.79;103466.00;5051239;28;11571;-64
2024/01/09 04:59:22;;;;;;;;;7.00;4.00;;;;;-2.93;69.76;103482.59;5052903;28;11492;-66
2024/01/09 05:01:50;;;;;;;;;8.00;6.00;;;;;-2.97;70.18;103470.41;5069119;28;11616;-66
2024/01/09 05:04:16;;;;;;;;;3.00;3.00;;;;;-2.85;70.41;103469.22;5050801;28;11473;-63
2024/01/09 05:06:43;;;;;;;;;6.75;4.25;;;;;-2.94;69.70;103465.06;5056274;28;11470;-65
2024/01/09 05:09:10;;;;;;;;;5.50;4.00;;;;;-2.89;70.15;103471.06;5069826;28;11529;-67
2024/01/09 05:11:37;;;;;;;;;7.00;5.50;;;;;-2.88;69.99;103472.78;5054791;28;11475;-65
2024/01/09 05:14:03;;;;;;;;;7.00;5.50;;;;;-3.06;69.38;103462.78;5051462;28;11491;-65
2024/01/09 05:16:30;;;;;;;;;8.00;6.50;;;;;-3.17;69.00;103462.19;5051775;28;11626;-65
2024/01/09 05:18:56;;;;;;;;;9.50;4.00;;;;;-3.16;69.86;103458.63;5068220;28;11493;-65
2024/01/09 05:21:23;;;;;;;;;4.00;4.00;;;;;-3.32;70.02;103451.16;5053042;28;11502;-64
2024/01/09 05:23:50;;;;;;;;;4.00;3.50;;;;;-3.15;70.29;103463.88;5068427;28;11534;-64
2024/01/09 05:26:16;;;;;;;;;10.50;6.75;;;;;-3.12;69.60;103465.56;5101959;28;11503;-65
2024/01/09 05:28:46;;;;;;;;;7.50;5.75;;;;;-3.14;69.47;103473.50;5061924;28;11579;-64
2024/01/09 05:31:12;;;;;;;;;6.00;3.50;;;;;-3.19;69.34;103472.78;5061196;28;12307;-66
2024/01/09 05:33:39;;;;;;;;;1.50;1.00;;;;;-3.17;70.31;103470.94;5084738;28;11457;-66
2024/01/09 05:36:06;;;;;;;;;4.75;3.00;;;;;-3.04;70.14;103480.28;5054061;28;11481;-66
2024/01/09 05:38:33;;;;;;;;;6.00;6.00;;;;;-3.13;68.51;103484.91;5072526;28;11555;-66
2024/01/09 05:41:00;;;;;;;;;5.50;4.00;;;;;-3.15;69.01;103478.84;5073066;28;12319;-65
2024/01/09 05:43:26;;;;;;;;;4.00;3.25;;;;;-3.14;68.90;103476.16;5070607;28;11587;-67
2024/01/09 05:45:53;;;;;;;;;3.00;3.00;;;;;-3.12;69.15;103491.91;5071478;28;12203;-66
2024/01/09 05:48:19;;;;;;;;;5.50;5.50;;;;;-3.07;69.61;103480.34;5072867;28;11549;-66
2024/01/09 05:50:46;;;;;;;;;6.00;5.00;;;;;-3.12;68.71;103494.53;5072390;28;12220;-66
2024/01/09 05:53:13;;;;;;;;;9.00;7.00;;;;;-3.17;69.46;103480.63;5057622;28;11621;-66
2024/01/09 05:55:40;;;;;;;;;6.75;6.75;;;;;-3.18;69.18;103485.03;5072781;28;11465;-66
2024/01/09 05:58:06;;;;;;;;;4.00;3.00;;;;;-3.19;68.52;103485.94;5072720;28;11467;-66
2024/01/09 06:00:35;;;;;;;;;3.50;3.50;;;;;-3.15;68.67;103477.06;5087837;28;11551;-66
2024/01/09 06:03:02;;;;;;;;;3.00;2.00;;;;;-3.08;69.36;103486.53;5067621;28;11578;-66
2024/01/09 06:05:29;;;;;;;;;3.75;3.50;;;;;-2.96;69.24;103492.34;5072644;28;11517;-65
2024/01/09 06:07:56;;;;;;;;;4.00;3.25;;;;;-2.99;68.23;103494.19;5070220;28;11530;-66
2024/01/09 06:10:22;;;;;;;;;4.50;3.50;;;;;-3.08;69.12;103491.81;5068772;28;11475;-67
2024/01/09 06:12:49;;;;;;;;;4.00;4.00;;;;;-3.18;68.45;103500.84;5056202;28;11452;-66
2024/01/09 06:15:15;;;;;;;;;5.00;5.00;;;;;-3.26;68.76;103501.03;5054325;28;11596;-67
2024/01/09 06:17:42;;;;;;;;;3.50;2.50;;;;;-3.15;69.24;103502.53;5062135;28;11532;-66
2024/01/09 06:20:09;;;;;;;;;8.50;4.00;;;;;-3.05;69.39;103494.34;5071944;28;11554;-66
2024/01/09 06:22:35;;;;;;;;;7.00;6.00;;;;;-3.08;68.46;103504.09;5071711;28;11508;-66
2024/01/09 06:25:02;;;;;;;;;6.50;6.00;;;;;-3.09;68.81;103505.00;5037741;28;11525;-66
2024/01/09 06:27:29;;;;;;;;;6.50;6.50;;;;;-3.13;69.42;103496.31;5072098;28;11563;-67
2024/01/09 06:29:55;;;;;;;;;3.00;3.00;;;;;-3.16;68.13;103503.41;5065876;28;11739;-66
2024/01/09 06:32:22;;;;;;;;;4.50;4.50;;;;;-3.17;68.54;103489.41;5070863;28;11571;-66
2024/01/09 06:34:49;;;;;;;;;10.75;4.50;;;;;-3.18;67.98;103502.63;5068688;28;11471;-68
2024/01/09 06:37:15;;;;;;;;;9.50;4.50;;;;;-3.26;69.40;103505.44;5067703;28;11499;-67
2024/01/09 06:39:42;;;;;;;;;4.00;4.00;;;;;-3.29;68.70;103495.84;5049484;28;11503;-68
2024/01/09 06:42:09;;;;;;;;;6.50;6.25;;;;;-3.30;68.85;103503.78;5069725;28;11546;-67
2024/01/09 06:44:36;;;;;;;;;5.00;3.25;;;;;-3.22;69.30;103507.09;5075928;28;12208;-67
2024/01/09 06:47:04;;;;;;;;;3.50;1.50;;;;;-3.27;68.12;103509.00;5079506;28;12264;-67
2024/01/09 06:49:31;;;;;;;;;6.75;6.25;;;;;-3.33;68.32;103509.13;5079014;28;11500;-67
2024/01/09 06:51:57;;;;;;;;;8.25;4.75;;;;;-3.31;69.83;103502.94;5070722;28;11501;-66
2024/01/09 06:54:24;;;;;;;;;1.00;1.00;;;;;-3.22;69.72;103504.47;5071680;28;11525;-66
2024/01/09 06:56:51;;;;;;;;;3.25;3.00;;;;;-3.15;69.68;103500.78;5067544;28;11560;-67
2024/01/09 06:59:18;;;;;;;;;6.50;6.00;;;;;-3.23;69.17;103515.91;5069865;28;11591;-67
2024/01/09 07:01:46;;;;;;;;;3.00;3.00;;;;;-3.19;69.26;103500.91;5053648;28;11504;-66
2024/01/09 07:04:13;;;;;;;;;6.75;4.00;;;;;-3.16;69.92;103512.22;5047662;28;11525;-67
2024/01/09 07:06:40;;;;;;;;;3.50;2.50;;;;;-3.14;69.39;103513.03;5069429;28;11498;-67
2024/01/09 07:09:07;;;;;;;;;7.00;4.00;;;;;-3.09;68.83;103511.13;5071319;28;11524;-67
2024/01/09 07:11:34;;;;;;;;;3.00;3.00;;;;;-3.02;68.37;103506.56;5070964;28;11517;-67
2024/01/09 07:14:00;;;;;;;;;6.50;3.50;;;;;-3.12;68.31;103511.22;5071064;28;11641;-66
2024/01/09 07:16:27;;;;;;;;;6.00;3.00;;;;;-3.19;67.66;103514.94;5070427;28;11462;-66
2024/01/09 07:18:53;;;;;;;;;3.00;3.00;;;;;-3.30;67.73;103523.09;5071396;28;11515;-66
2024/01/09 07:21:23;;;;;;;;;3.00;3.00;;;;;-3.53;67.21;103526.28;5069701;28;11445;-66
2024/01/09 07:23:50;;;;;;;;;7.00;6.00;;;;;-3.57;67.95;103508.81;5071026;28;11469;-66
2024/01/09 07:26:17;;;;;;;;;3.75;3.25;;;;;-3.57;67.02;103510.59;5071049;28;11497;-65
2024/01/09 07:28:44;;;;;;;;;6.50;6.25;;;;;-3.60;66.97;103522.09;5053238;28;11444;-66
2024/01/09 07:31:10;;;;;;;;;5.75;3.50;;;;;-3.61;66.67;103525.59;5070657;28;11605;-66
2024/01/09 07:33:37;;;;;;;;;3.25;2.50;;;;;-3.67;66.73;103544.19;5068108;28;12244;-69
2024/01/09 07:36:05;;;;;;;;;3.50;3.00;;;;;-3.64;67.66;103523.06;5071034;28;12170;-67
2024/01/09 07:38:32;;;;;;;;;6.00;3.50;;;;;-3.54;67.04;103542.13;5070849;28;11477;-64
2024/01/09 07:40:59;;;;;;;;;1.00;1.00;;;;;-3.55;65.69;103532.50;5069365;28;11492;-66
2024/01/09 07:43:27;;;;;;;;;3.25;3.00;;;;;-3.61;65.48;103538.75;5070652;28;11490;-65
2024/01/09 07:45:54;;;;;;;;;3.00;3.00;;;;;-3.63;66.23;103543.22;5070816;28;11453;-66
2024/01/09 07:48:21;;;;;;;;;5.00;4.50;;;;;-3.59;66.80;103542.25;5068564;28;11486;-66
2024/01/09 07:50:48;;;;;;;;;4.50;3.00;;;;;-3.55;66.03;103540.41;5070133;28;12871;-65
2024/01/09 07:53:15;;;;;;;;;3.25;3.00;;;;;-3.47;66.26;103550.75;5070169;28;11500;-66
2024/01/09 07:55:41;;;;;;;;;7.50;4.00;;;;;-3.43;65.71;103549.78;5070183;28;11485;-66
2024/01/09 07:58:08;;;;;;;;;4.00;3.00;;;;;-3.47;66.12;103548.97;5070256;28;11501;-66
2024/01/09 08:00:34;;;;;;;;;1.00;1.00;;;;;-3.41;66.41;103550.59;5101281;22;11513;-67
2024/01/09 08:03:04;;;;;;;;;3.75;3.75;;;;;-3.39;66.08;103556.69;5047953;28;11509;-67
2024/01/09 08:05:31;;;;;;;;;4.00;2.50;;;;;-3.42;65.93;103567.31;5039014;28;11511;-67
2024/01/09 08:07:58;;;;;;;;;3.00;3.00;;;;;-3.52;65.28;103556.13;5040705;28;12380;-68
2024/01/09 08:10:25;;;;;;;;;9.00;3.00;;;;;-3.51;65.93;103561.34;5045986;28;11547;-67
2024/01/09 08:12:51;;;;;;;;;4.00;4.00;;;;;-3.36;66.14;103562.75;5028802;28;11549;-65
2024/01/09 08:15:18;;;;;;;;;3.00;1.00;;;;;-3.29;65.89;103568.72;5030368;28;11508;-66
2024/01/09 08:17:44;;;;;;;;;5.50;5.50;;;;;-3.26;65.39;103566.88;5030634;28;11653;-67
2024/01/09 08:20:11;;;;;;;;;10.00;5.50;;;;;-3.25;65.40;103573.88;5030424;28;11629;-68
2024/01/09 08:22:38;;;;;;;;;5.50;5.50;;;;;-3.34;65.26;103578.50;5028707;28;11620;-66
2024/01/09 08:25:05;;;;;;;;;5.00;3.00;;;;;-3.28;65.31;103581.88;5029381;28;11573;-67
2024/01/09 08:27:32;;;;;;;;;2.50;2.50;;;;;-3.25;64.82;103575.66;5019021;28;11547;-67
2024/01/09 08:29:58;;;;;;;;;1.00;1.00;;;;;-3.17;64.69;103578.09;5009194;28;11637;-67
2024/01/09 08:32:25;;;;;;;;;4.00;3.00;;;;;-3.21;63.53;103573.81;5010417;28;11516;-67
2024/01/09 08:34:52;;;;;;;;;6.75;2.50;;;;;-3.27;63.13;103574.84;5009187;28;11545;-66
2024/01/09 08:37:19;;;;;;;;;3.00;3.00;;;;;-3.35;61.59;103585.56;5010452;28;11571;-67
2024/01/09 08:39:45;;;;;;;;;2.00;2.00;;;;;-3.37;62.85;103591.75;5029060;28;11589;-66
2024/01/09 08:42:12;;;;;;;;;1.00;1.00;;;;;-3.30;63.35;103582.81;5030112;28;11643;-70
2024/01/09 08:44:39;;;;;;;;;3.00;2.50;;;;;-3.27;63.36;103594.13;5020969;28;11548;-67
2024/01/09 08:47:05;;;;;;;;;5.00;2.75;;;;;-3.27;62.39;103595.91;5034844;28;11496;-67
2024/01/09 08:49:32;;;;;;;;;3.00;3.00;;;;;-3.32;61.34;103596.03;5024711;28;11594;-67
2024/01/09 08:51:59;;;;;;;;;6.50;3.25;;;;;-3.17;64.36;103592.13;5029909;28;11530;-68
2024/01/09 08:54:26;;;;;;;;;3.25;3.25;;;;;-3.22;62.41;103588.75;5028668;28;11584;-68
2024/01/09 08:56:52;;;;;;;;;5.00;3.00;;;;;-3.28;61.37;103596.78;5029970;28;11514;-67
2024/01/09 08:59:19;;;;;;;;;3.00;3.00;;;;;-3.34;61.61;103594.31;5028974;28;11538;-68
2024/01/09 09:01:45;;;;;;;;;4.75;3.00;;;;;-3.32;60.89;103592.50;5044719;28;11537;-67
2024/01/09 09:04:12;;;;;;;;;1.00;1.00;;;;;-3.29;60.79;103601.19;5029787;28;11507;-68
2024/01/09 09:06:39;;;;;;;;;3.75;2.75;;;;;-3.26;59.98;103600.25;5030028;28;11506;-66
2024/01/09 09:09:05;;;;;;;;;4.00;3.00;;;;;-3.22;60.08;103599.28;5030767;28;11525;-67
2024/01/09 09:11:32;;;;;;;;;4.00;3.00;;;;;-3.25;59.24;103597.59;5047374;28;11594;-68
2024/01/09 09:13:59;;;;;;;;;5.50;1.00;;;;;-3.18;60.16;103598.31;5034174;28;11511;-66
2024/01/09 09:16:29;;;;;;;;;3.50;3.25;;;;;-3.13;59.98;103601.69;5032340;28;11510;-67
2024/01/09 09:18:56;;;;;;;;;1.00;1.00;;;;;-3.17;58.97;103594.75;5032610;28;11520;-67
2024/01/09 09:21:23;;;;;;;;;3.50;3.50;;;;;-3.14;58.77;103599.09;5032563;28;11538;-67
2024/01/09 09:23:49;;;;;;;;;3.00;3.00;;;;;-3.13;59.62;103590.28;5034048;28;11478;-67
2024/01/09 09:26:16;;;;;;;;;6.25;1.00;;;;;-3.04;57.98;103585.69;5033970;28;11593;-67
2024/01/09 09:28:47;;;;;;;;;6.75;3.75;;;;;-2.96;59.55;103592.50;5031401;28;11531;-67
2024/01/09 09:31:29;;;;;;;;;4.00;3.75;;;;;-2.87;57.46;103585.25;5039941;28;12223;-67
2024/01/09 09:33:56;;;;;;;;;2.50;2.50;;;;;-2.93;57.70;103595.94;5047845;28;11589;-67
2024/01/09 09:36:23;;;;;;;;;1.50;1.50;;;;;-2.94;56.77;103594.19;5041925;28;11528;-68
2024/01/09 09:38:53;;;;;;;;;3.25;1.00;;;;;-2.91;57.23;103594.13;5041532;28;11612;-66
2024/01/09 09:41:20;;;;;;;;;3.50;3.50;;;;;-2.79;57.48;103598.22;5026492;28;11499;-67
2024/01/09 09:43:55;;;;;;;;;6.50;3.00;;;;;-2.76;56.38;103595.47;5032304;28;11534;-67
2024/01/09 09:46:27;;;;;;;;;6.00;6.00;;;;;-2.75;56.88;103591.97;5033703;28;11549;-65
2024/01/09 09:48:55;;;;;;;;;6.25;3.00;;;;;-2.76;56.13;103590.22;5046298;28;11519;-67
2024/01/09 09:51:25;;;;;;;;;6.00;3.00;;;;;-2.72;56.97;103596.28;5039852;28;11532;-66
2024/01/09 09:53:54;;;;;;;;;3.00;3.00;;;;;-2.75;55.17;103594.59;5027802;28;11594;-67
2024/01/09 09:56:21;;;;;;;;;4.00;4.00;;;;;-2.76;55.16;103596.34;5033426;28;11510;-66
2024/01/09 09:58:48;;;;;;;;;4.00;4.00;;;;;-2.63;55.49;103583.72;5032110;28;11541;-65
2024/01/09 10:01:16;;;;;;;;;4.00;4.00;;;;;-2.68;54.92;103587.38;5031440;28;11672;-66
2024/01/09 10:03:56;;;;;;;;;2.50;1.00;;;;;-2.64;54.37;103591.66;5033532;28;11520;-66
2024/01/09 10:06:25;;;;;;;;;5.00;3.75;;;;;-2.55;54.51;103581.75;5023546;28;11515;-66
2024/01/09 10:08:53;;;;;;;;;3.75;3.75;;;;;-2.47;54.20;103588.56;5013183;28;11594;-66
2024/01/09 10:11:20;;;;;;;;;3.00;3.00;;;;;-2.31;53.86;103580.22;5013324;28;11537;-67
2024/01/09 10:13:47;;;;;;;;;3.00;3.00;;;;;-2.19;53.13;103568.41;5013332;28;11525;-66
2024/01/09 10:16:14;;;;;;;;;5.25;3.75;;;;;-2.13;53.52;103585.84;5014482;28;11528;-66
2024/01/09 10:18:40;;;;;;;;;1.50;1.50;;;;;-1.99;53.78;103567.81;5024700;28;11541;-67
2024/01/09 10:21:08;;;;;;;;;4.00;4.00;;;;;-1.93;52.86;103572.06;5012606;28;11512;-67
2024/01/09 10:23:38;;;;;;;;;3.00;3.00;;;;;-1.88;52.58;103568.38;5028635;28;11514;-67
2024/01/09 10:26:10;;;;;;;;;4.00;4.00;;;;;-1.88;51.54;103565.75;5048572;28;11488;-66
2024/01/09 10:28:36;;;;;;;;;0.75;0.75;;;;;-1.79;52.41;103576.00;5033140;28;11745;-66
2024/01/09 10:31:06;;;;;;;;;3.00;3.00;;;;;-1.70;51.66;103561.69;5032910;28;11529;-67
2024/01/09 10:33:37;;;;;;;;;7.00;3.00;;;;;-1.68;51.21;103561.63;5033122;28;11596;-66
2024/01/09 10:36:04;;;;;;;;;6.75;1.50;;;;;-1.74;50.84;103565.34;5033043;28;11523;-66
2024/01/09 10:38:32;;;;;;;;;6.00;6.00;;;;;-1.72;51.45;103566.13;5033191;28;11501;-66
2024/01/09 10:41:13;;;;;;;;;3.50;3.50;;;;;-1.71;52.17;103561.72;5013778;28;11525;-67
2024/01/09 10:43:41;;;;;;;;;1.00;1.00;;;;;-1.79;51.88;103561.94;5012963;28;11524;-65
2024/01/09 10:46:08;;;;;;;;;2.00;2.00;;;;;-1.73;52.22;103558.28;5012929;28;11581;-67
2024/01/09 10:48:35;;;;;;;;;6.75;3.25;;;;;-1.69;52.76;103566.03;5012779;28;11521;-66
2024/01/09 10:51:02;;;;;;;;;1.50;1.50;;;;;-1.66;52.17;103554.50;5012408;28;11620;-65
2024/01/09 10:53:31;;;;;;;;;5.00;3.50;;;;;-1.65;51.85;103538.63;5015467;28;11491;-67
2024/01/09 10:56:00;;;;;;;;;5.75;5.00;;;;;-1.75;51.92;103540.69;5032387;28;11649;-68
2024/01/09 10:58:27;;;;;;;;;8.00;3.00;;;;;-1.77;52.60;103534.59;5030831;28;11550;-66
2024/01/09 11:00:54;;;;;;;;;3.25;3.00;;;;;-1.67;53.17;103531.66;5031952;28;11523;-66
2024/01/09 11:03:22;;;;;;;;;6.50;4.00;;;;;-1.60;53.39;103538.47;5030927;28;11518;-66
2024/01/09 11:05:53;;;;;;;;;2.00;2.00;;;;;-1.56;52.09;103540.09;5032052;28;11547;-66
2024/01/09 11:08:20;;;;;;;;;3.25;3.25;;;;;-1.55;52.78;103531.25;5032247;28;12248;-67
2024/01/09 11:10:48;;;;;;;;;5.50;3.75;;;;;-1.46;53.47;103530.97;5031625;28;11618;-66
2024/01/09 11:13:18;;;;;;;;;4.50;4.00;;;;;-1.47;52.87;103529.22;5031789;28;11626;-67
2024/01/09 11:15:54;;;;;;;;;3.00;2.00;;;;;-1.44;52.19;103523.00;5031853;28;11593;-66
2024/01/09 11:18:22;;;;;;;;;5.50;5.50;;;;;-1.43;52.87;103527.38;5032186;28;11540;-66
2024/01/09 11:21:03;;;;;;;;;7.50;4.00;;;;;-1.41;52.59;103525.56;5031690;28;11518;-65
2024/01/09 11:23:42;;;;;;;;;3.50;3.50;;;;;-1.45;51.39;103511.56;5031801;28;11621;-66